createdAt,value
2023-04-28T00:00:22.886Z,101035.20
2023-04-28T00:03:50.767Z,101036.53
2023-04-28T00:07:14.914Z,101036.21
2023-04-28T00:10:42.809Z,101041.27
2023-04-28T00:14:11.648Z,101036.14
2023-04-28T00:17:05.571Z,101037.89
2023-04-28T00:20:33.512Z,101039.38
2023-04-28T00:23:49.275Z,101040.48
2023-04-28T00:27:14.131Z,101044.55
2023-04-28T00:30:41.796Z,101046.05
2023-04-28T00:34:09.679Z,101047.55
2023-04-28T00:37:37.716Z,101052.09
2023-04-28T00:40:26.912Z,101054.06
2023-04-28T00:43:42.257Z,101054.89
2023-04-28T00:46:39.729Z,101056.18
2023-04-28T00:50:04.057Z,101059.70
2023-04-28T00:53:32.265Z,101062.10
2023-04-28T00:56:40.990Z,101061.83
2023-04-28T01:00:08.829Z,101065.05
2023-04-28T01:03:18.907Z,101072.52
2023-04-28T01:06:27.876Z,101072.34
2023-04-28T01:09:19.726Z,101076.46
2023-04-28T01:12:08.060Z,101077.13
2023-04-28T01:15:35.819Z,101082.58
2023-04-28T01:18:40.598Z,101081.71
2023-04-28T01:21:50.335Z,101081.30
2023-04-28T01:25:14.271Z,101082.08
2023-04-28T01:28:01.215Z,101087.12
2023-04-28T01:31:29.404Z,101085.71
2023-04-28T01:34:38.223Z,101087.22
2023-04-28T01:37:38.264Z,101086.41
2023-04-28T01:40:54.211Z,101086.92
2023-04-28T01:44:10.231Z,101081.55
2023-04-28T01:47:37.951Z,101086.52
2023-04-28T01:51:06.001Z,101084.75
2023-04-28T01:54:22.615Z,101086.22
2023-04-28T01:57:50.285Z,101092.33
2023-04-28T02:01:18.151Z,101095.54
2023-04-28T02:04:22.176Z,101095.02
2023-04-28T02:07:49.874Z,101095.69
2023-04-28T02:11:17.697Z,101099.65
2023-04-28T02:14:45.706Z,101096.25
2023-04-28T02:18:13.521Z,101101.06
2023-04-28T02:21:41.091Z,101100.46
2023-04-28T02:25:08.799Z,101098.79
2023-04-28T02:28:36.659Z,101100.84
2023-04-28T02:32:04.496Z,101099.33
2023-04-28T02:35:20.949Z,101098.86
2023-04-28T02:38:48.601Z,101100.87
2023-04-28T02:42:16.382Z,101102.91
2023-04-28T02:45:41.191Z,101104.30
2023-04-28T02:49:08.951Z,101101.73
2023-04-28T02:52:17.952Z,101102.83
2023-04-28T02:55:41.597Z,101106.27
2023-04-28T02:59:09.536Z,101111.42
2023-04-28T03:02:37.356Z,101111.61
2023-04-28T03:05:42.943Z,101116.81
2023-04-28T03:09:05.999Z,101120.38
2023-04-28T03:12:33.920Z,101124.83
2023-04-28T03:15:26.270Z,101124.62
2023-04-28T03:18:50.129Z,101128.16
2023-04-28T03:22:17.793Z,101129.91
2023-04-28T03:25:43.052Z,101133.44
2023-04-28T03:29:11.260Z,101134.88
2023-04-28T03:32:22.870Z,101134.04
2023-04-28T03:35:12.765Z,101136.88
2023-04-28T03:38:40.753Z,101134.05
2023-04-28T03:41:50.354Z,101136.24
2023-04-28T03:45:21.190Z,101139.46
2023-04-28T03:48:29.841Z,101142.12
2023-04-28T03:51:57.546Z,101140.84
2023-04-28T03:55:06.469Z,101141.95
2023-04-28T03:58:22.000Z,101145.98
2023-04-28T04:01:29.830Z,101146.29
2023-04-28T04:04:58.198Z,101152.47
2023-04-28T04:07:52.200Z,101155.84
2023-04-28T04:11:20.284Z,101157.63
2023-04-28T04:14:13.870Z,101159.23
2023-04-28T04:17:24.275Z,101158.90
2023-04-28T04:20:52.113Z,101159.58
2023-04-28T04:24:19.693Z,101163.33
2023-04-28T04:27:28.105Z,101164.16
2023-04-28T04:30:55.762Z,101165.98
2023-04-28T04:34:23.416Z,101172.02
2023-04-28T04:37:51.117Z,101174.64
2023-04-28T04:41:01.349Z,101176.38
2023-04-28T04:44:29.525Z,101177.98
2023-04-28T04:48:00.123Z,101180.34
2023-04-28T04:50:48.345Z,101183.25
2023-04-28T04:53:48.405Z,101184.46
2023-04-28T04:56:25.751Z,101186.14
2023-04-28T04:59:15.597Z,101191.40
2023-04-28T05:02:25.783Z,101192.94
2023-04-28T05:05:34.971Z,101191.67
2023-04-28T05:08:43.589Z,101192.88
2023-04-28T05:12:07.065Z,101196.45
2023-04-28T05:15:06.865Z,101199.27
2023-04-28T05:18:34.326Z,101200.48
2023-04-28T05:22:02.284Z,101202.39
2023-04-28T05:25:30.117Z,101202.23
2023-04-28T05:28:21.946Z,101198.86
2023-04-28T05:31:48.419Z,101195.89
2023-04-28T05:35:16.523Z,101202.71
2023-04-28T05:38:25.245Z,101197.86
2023-04-28T05:41:53.262Z,101197.30
2023-04-28T05:45:09.647Z,101196.05
2023-04-28T05:48:33.673Z,101200.79
2023-04-28T05:51:07.616Z,101195.52
2023-04-28T05:54:23.011Z,101201.13
2023-04-28T05:57:53.333Z,101197.11
2023-04-28T06:00:52.784Z,101194.07
2023-04-28T06:04:27.964Z,101194.54
2023-04-28T06:07:37.786Z,101198.96
2023-04-28T06:11:03.640Z,101203.09
2023-04-28T06:14:11.578Z,101201.72
2023-04-28T06:17:20.537Z,101199.98
2023-04-28T06:20:36.409Z,101200.10
2023-04-28T06:24:04.345Z,101201.78
2023-04-28T06:27:14.098Z,101203.73
2023-04-28T06:30:04.934Z,101196.43
2023-04-28T06:33:13.876Z,101192.79
2023-04-28T06:36:41.610Z,101195.86
2023-04-28T06:40:09.393Z,101196.77
2023-04-28T06:43:18.194Z,101193.10
2023-04-28T06:46:27.544Z,101190.02
2023-04-28T06:49:43.957Z,101189.70
2023-04-28T06:52:56.281Z,101192.52
2023-04-28T06:56:07.819Z,101195.45
2023-04-28T06:59:05.902Z,101201.27
2023-04-28T07:02:14.884Z,101202.98
2023-04-28T07:05:32.225Z,101203.30
2023-04-28T07:08:57.106Z,101194.38
2023-04-28T07:12:02.180Z,101193.24
2023-04-28T07:15:29.874Z,101191.39
2023-04-28T07:18:54.964Z,101195.02
2023-04-28T07:22:17.871Z,101193.98
2023-04-28T07:25:45.520Z,101188.59
2023-04-28T07:29:13.385Z,101191.45
2023-04-28T07:32:41.236Z,101189.78
2023-04-28T07:35:51.111Z,101188.98
2023-04-28T07:38:28.257Z,101195.14
2023-04-28T07:41:26.232Z,101191.91
2023-04-28T07:44:16.301Z,101192.17
2023-04-28T07:47:43.700Z,101188.50
2023-04-28T07:51:11.610Z,101187.67
2023-04-28T07:54:08.504Z,101187.55
2023-04-28T07:57:20.139Z,101188.35
2023-04-28T08:00:11.045Z,101185.11
2023-04-28T08:03:32.415Z,101189.90
2023-04-28T08:06:44.339Z,101188.98
2023-04-28T08:10:12.145Z,101181.70
2023-04-28T08:13:39.878Z,101180.88
2023-04-28T08:17:07.940Z,101177.07
2023-04-28T08:20:35.526Z,101172.06
2023-04-28T08:23:59.707Z,101169.04
2023-04-28T08:27:04.537Z,101167.31
2023-04-28T08:30:32.609Z,101160.95
2023-04-28T08:34:00.278Z,101160.49
2023-04-28T08:37:05.648Z,101162.95
2023-04-28T08:40:33.603Z,101157.64
2023-04-28T08:43:46.245Z,101155.34
2023-04-28T08:46:44.089Z,101156.60
2023-04-28T08:49:15.100Z,101151.60
2023-04-28T08:52:24.697Z,101151.72
2023-04-28T08:55:49.858Z,101144.89
2023-04-28T08:59:17.834Z,101146.27
2023-04-28T09:02:45.720Z,101143.40
2023-04-28T09:06:13.630Z,101143.66
2023-04-28T09:09:41.503Z,101139.16
2023-04-28T09:13:09.393Z,101135.27
2023-04-28T09:16:37.246Z,101139.48
2023-04-28T09:19:35.352Z,101130.77
2023-04-28T09:23:03.270Z,101125.20
2023-04-28T09:26:31.306Z,101127.55
2023-04-28T09:29:40.107Z,101118.42
2023-04-28T09:33:09.965Z,101115.09
2023-04-28T09:36:17.644Z,101106.13
2023-04-28T09:39:45.471Z,101109.19
2023-04-28T09:43:21.309Z,101094.34
2023-04-28T09:46:40.859Z,101091.89
2023-04-28T09:50:08.719Z,101091.29
2023-04-28T09:53:36.508Z,101090.20
2023-04-28T09:57:04.641Z,101084.27
2023-04-28T10:00:31.976Z,101075.39
2023-04-28T10:03:59.795Z,101066.60
2023-04-28T10:07:27.605Z,101061.86
2023-04-28T10:10:55.561Z,101049.44
2023-04-28T10:14:05.334Z,101050.55
2023-04-28T10:17:30.374Z,101051.98
2023-04-28T10:20:39.215Z,101047.58
2023-04-28T10:24:07.105Z,101044.19
2023-04-28T10:27:34.995Z,101043.85
2023-04-28T10:31:02.727Z,101042.48
2023-04-28T10:34:31.419Z,101043.33
2023-04-28T10:37:39.405Z,101037.68
2023-04-28T10:41:07.115Z,101037.64
2023-04-28T10:44:35.041Z,101037.23
2023-04-28T10:47:44.111Z,101027.48
2023-04-28T10:51:00.018Z,101022.77
2023-04-28T10:54:27.841Z,101019.94
2023-04-28T10:57:36.750Z,101019.08
2023-04-28T11:01:01.531Z,101017.82
2023-04-28T11:04:14.074Z,101015.59
2023-04-28T11:07:41.340Z,101011.21
2023-04-28T11:11:09.158Z,101005.66
2023-04-28T11:14:37.110Z,101005.77
2023-04-28T11:18:04.836Z,101003.33
2023-04-28T11:21:32.542Z,101004.81
2023-04-28T11:24:41.384Z,101002.73
2023-04-28T11:28:09.226Z,101005.90
2023-04-28T11:31:03.407Z,101006.38
2023-04-28T11:34:19.226Z,101000.86
2023-04-28T11:37:47.193Z,101005.23
2023-04-28T11:40:23.885Z,101003.85
2023-04-28T11:43:47.413Z,101003.11
2023-04-28T11:46:58.308Z,100995.17
2023-04-28T11:50:26.180Z,100991.02
2023-04-28T11:53:19.333Z,100984.64
2023-04-28T11:56:09.257Z,100977.05
2023-04-28T11:59:34.279Z,100966.95
2023-04-28T12:02:24.690Z,100960.20
2023-04-28T12:05:41.318Z,100967.78
2023-04-28T12:09:09.180Z,100964.17
2023-04-28T12:12:18.489Z,100960.11
2023-04-28T12:15:07.832Z,100962.41
2023-04-28T12:18:35.685Z,100968.02
2023-04-28T12:21:44.538Z,100962.03
2023-04-28T12:24:54.149Z,100953.11
2023-04-28T12:28:21.838Z,100946.77
2023-04-28T12:31:49.801Z,100939.91
2023-04-28T12:34:55.060Z,100937.09
2023-04-28T12:37:47.072Z,100918.77
2023-04-28T12:40:55.047Z,100912.64
2023-04-28T12:43:44.646Z,100905.98
2023-04-28T12:47:12.527Z,100903.33
2023-04-28T12:50:05.876Z,100896.42
2023-04-28T12:53:16.137Z,100888.64
2023-04-28T12:56:26.048Z,100884.49
2023-04-28T12:59:17.070Z,100887.45
2023-04-28T13:02:45.144Z,100890.32
2023-04-28T13:05:51.114Z,100884.53
2023-04-28T13:08:56.980Z,100879.68
2023-04-28T13:12:20.597Z,100879.42
2023-04-28T13:15:09.214Z,100875.48
2023-04-28T13:18:32.580Z,100864.42
2023-04-28T13:21:41.292Z,100852.68
2023-04-28T13:25:09.169Z,100851.17
2023-04-28T13:28:21.062Z,100844.28
2023-04-28T13:31:46.232Z,100837.76
2023-04-28T13:35:14.038Z,100835.29
2023-04-28T13:38:22.365Z,100824.16
2023-04-28T13:41:07.730Z,100818.75
2023-04-28T13:44:15.980Z,100813.53
2023-04-28T13:47:25.736Z,100808.90
2023-04-28T13:50:34.385Z,100814.35
2023-04-28T13:53:42.641Z,100813.23
2023-04-28T13:57:08.050Z,100813.34
2023-04-28T13:59:57.884Z,100801.77
2023-04-28T14:02:35.047Z,100792.67
2023-04-28T14:05:42.121Z,100782.92
2023-04-28T14:08:43.673Z,100779.30
2023-04-28T14:11:32.938Z,100781.45
2023-04-28T14:14:44.913Z,100776.63
2023-04-28T14:17:55.353Z,100781.48
2023-04-28T14:21:06.917Z,100778.52
2023-04-28T14:24:24.133Z,100777.20
2023-04-28T14:27:32.757Z,100770.09
2023-04-28T14:30:41.473Z,100762.77
2023-04-28T14:34:09.178Z,100765.15
2023-04-28T14:37:46.215Z,100766.84
2023-04-28T14:40:57.733Z,100767.65
2023-04-28T14:44:25.391Z,100768.31
2023-04-28T14:47:41.716Z,100765.36
2023-04-28T14:50:46.094Z,100760.92
2023-04-28T14:53:54.123Z,100753.37
2023-04-28T14:57:02.359Z,100753.45
2023-04-28T15:00:30.005Z,100750.41
2023-04-28T15:03:57.960Z,100745.63
2023-04-28T15:07:09.818Z,100743.95
2023-04-28T15:09:55.848Z,100746.72
2023-04-28T15:13:23.660Z,100751.51
2023-04-28T15:16:33.321Z,100755.52
2023-04-28T15:19:23.278Z,100756.12
2023-04-28T15:22:39.726Z,100759.52
2023-04-28T15:25:26.910Z,100760.39
2023-04-28T15:28:37.255Z,100760.72
2023-04-28T15:31:45.005Z,100762.32
2023-04-28T15:35:12.666Z,100757.42
2023-04-28T15:38:40.543Z,100751.21
2023-04-28T15:41:48.986Z,100751.06
2023-04-28T15:45:16.826Z,100751.15
2023-04-28T15:48:27.093Z,100745.98
2023-04-28T15:51:55.109Z,100741.86
2023-04-28T15:55:22.695Z,100732.63
2023-04-28T15:58:51.835Z,100725.45
2023-04-28T16:01:32.988Z,100723.13
2023-04-28T16:05:00.781Z,100717.74
2023-04-28T16:08:28.549Z,100714.77
2023-04-28T16:11:17.487Z,100704.95
2023-04-28T16:14:26.287Z,100708.05
2023-04-28T16:17:50.573Z,100704.86
2023-04-28T16:21:06.442Z,100699.10
2023-04-28T16:24:22.274Z,100693.34
2023-04-28T16:27:50.153Z,100685.02
2023-04-28T16:31:18.081Z,100683.27
2023-04-28T16:34:46.049Z,100683.98
2023-04-28T16:38:14.001Z,100685.70
2023-04-28T16:41:41.691Z,100682.64
2023-04-28T16:45:09.475Z,100679.61
2023-04-28T16:48:37.340Z,100672.05
2023-04-28T16:52:05.020Z,100674.76
2023-04-28T16:55:14.960Z,100672.81
2023-04-28T16:58:39.676Z,100669.72
2023-04-28T17:02:07.427Z,100671.07
2023-04-28T17:05:35.305Z,100670.19
2023-04-28T17:09:03.464Z,100668.75
2023-04-28T17:12:31.149Z,100671.81
2023-04-28T17:15:46.880Z,100671.59
2023-04-28T17:19:14.551Z,100670.79
2023-04-28T17:22:42.216Z,100664.48
2023-04-28T17:25:34.012Z,100669.05
2023-04-28T17:29:01.713Z,100662.55
2023-04-28T17:32:29.706Z,100661.18
2023-04-28T17:35:57.469Z,100665.44
2023-04-28T17:39:25.447Z,100656.12
2023-04-28T17:42:53.501Z,100647.47
2023-04-28T17:46:21.162Z,100650.72
2023-04-28T17:49:49.086Z,100653.86
2023-04-28T17:53:16.888Z,100652.36
2023-04-28T17:56:41.222Z,100654.83
2023-04-28T17:59:50.982Z,100652.97
2023-04-28T18:03:21.672Z,100653.06
2023-04-28T18:06:49.224Z,100648.20
2023-04-28T18:10:17.430Z,100652.73
2023-04-28T18:13:45.322Z,100653.83
2023-04-28T18:17:13.237Z,100651.73
2023-04-28T18:20:41.186Z,100649.26
2023-04-28T18:24:09.088Z,100646.51
2023-04-28T18:27:37.334Z,100637.55
2023-04-28T18:31:05.147Z,100639.23
2023-04-28T18:34:32.794Z,100644.25
2023-04-28T18:37:41.823Z,100642.96
2023-04-28T18:40:57.420Z,100643.25
2023-04-28T18:44:25.717Z,100643.45
2023-04-28T18:47:15.491Z,100639.54
2023-04-28T18:50:13.487Z,100637.19
2023-04-28T18:53:41.424Z,100639.41
2023-04-28T18:57:09.914Z,100635.13
2023-04-28T19:00:38.189Z,100632.02
2023-04-28T19:04:06.342Z,100630.52
2023-04-28T19:07:33.958Z,100632.33
2023-04-28T19:11:01.716Z,100632.84
2023-04-28T19:14:10.925Z,100633.71
2023-04-28T19:17:18.899Z,100636.12
2023-04-28T19:20:46.965Z,100639.52
2023-04-28T19:23:55.723Z,100638.15
2023-04-28T19:27:08.149Z,100638.61
2023-04-28T19:30:17.042Z,100636.82
2023-04-28T19:33:45.128Z,100634.30
2023-04-28T19:37:00.581Z,100631.47
2023-04-28T19:40:12.248Z,100630.41
2023-04-28T19:43:39.925Z,100631.63
2023-04-28T19:47:08.014Z,100632.50
2023-04-28T19:50:12.197Z,100631.35
2023-04-28T19:53:27.982Z,100630.75
2023-04-28T19:56:56.276Z,100632.27
2023-04-28T19:59:53.244Z,100630.96
2023-04-28T20:03:03.306Z,100628.04
2023-04-28T20:06:11.977Z,100629.59
2023-04-28T20:09:39.918Z,100634.39
2023-04-28T20:13:07.733Z,100635.44
2023-04-28T20:16:16.613Z,100634.80
2023-04-28T20:19:16.439Z,100636.84
2023-04-28T20:22:08.685Z,100641.59
2023-04-28T20:25:34.620Z,100655.52
2023-04-28T20:28:47.736Z,100654.81
2023-04-28T20:31:56.399Z,100645.70
2023-04-28T20:35:07.979Z,100650.25
2023-04-28T20:38:16.895Z,100647.52
2023-04-28T20:41:42.270Z,100641.09
2023-04-28T20:45:10.161Z,100633.06
2023-04-28T20:48:19.070Z,100622.48
2023-04-28T20:51:42.662Z,100613.02
2023-04-28T20:54:58.501Z,100612.41
2023-04-28T20:58:22.247Z,100610.23
2023-04-28T21:01:32.632Z,100601.10
2023-04-28T21:05:00.324Z,100597.36
2023-04-28T21:07:50.316Z,100598.73
2023-04-28T21:11:13.874Z,100599.27
2023-04-28T21:14:41.611Z,100600.92
2023-04-28T21:18:09.464Z,100602.33
2023-04-28T21:21:37.202Z,100600.14
2023-04-28T21:25:04.972Z,100603.48
2023-04-28T21:28:33.070Z,100598.66
2023-04-28T21:31:45.222Z,100594.53
2023-04-28T21:35:13.005Z,100596.21
2023-04-28T21:38:41.122Z,100593.66
2023-04-28T21:42:08.881Z,100585.64
2023-04-28T21:45:36.675Z,100595.80
2023-04-28T21:49:04.283Z,100598.95
2023-04-28T21:52:20.003Z,100600.33
2023-04-28T21:55:48.134Z,100593.51
2023-04-28T21:58:56.727Z,100571.26
2023-04-28T22:02:02.516Z,100564.08
2023-04-28T22:05:30.217Z,100560.30
2023-04-28T22:08:58.046Z,100554.96
2023-04-28T22:12:25.827Z,100553.55
2023-04-28T22:15:53.904Z,100553.98
2023-04-28T22:19:21.528Z,100546.45
2023-04-28T22:22:49.320Z,100544.13
2023-04-28T22:26:17.183Z,100542.09
2023-04-28T22:29:25.794Z,100540.05
2023-04-28T22:32:53.671Z,100546.27
2023-04-28T22:36:21.401Z,100544.99
2023-04-28T22:39:49.599Z,100534.98
2023-04-28T22:43:17.120Z,100536.41
2023-04-28T22:46:44.860Z,100545.52
2023-04-28T22:50:12.845Z,100552.06
2023-04-28T22:53:40.536Z,100545.07
2023-04-28T22:57:08.443Z,100542.58
2023-04-28T23:00:36.271Z,100543.60
2023-04-28T23:04:04.111Z,100536.84
2023-04-28T23:07:32.042Z,100529.40
2023-04-28T23:10:59.902Z,100522.83
2023-04-28T23:14:08.715Z,100519.50
2023-04-28T23:17:36.439Z,100521.65
2023-04-28T23:20:48.690Z,100526.14
2023-04-28T23:23:58.539Z,100521.93
2023-04-28T23:27:07.249Z,100515.04
2023-04-28T23:30:19.140Z,100507.70
2023-04-28T23:33:46.952Z,100493.39
2023-04-28T23:37:14.713Z,100493.67
2023-04-28T23:40:42.687Z,100489.10
2023-04-28T23:44:06.368Z,100490.30
2023-04-28T23:47:15.126Z,100492.73
2023-04-28T23:50:42.790Z,100489.68
2023-04-28T23:53:40.424Z,100479.67
2023-04-28T23:57:08.104Z,100477.42
